Time;durP1;ratioP1;P1;durP2;ratioP2;P2;SDS_P1;SDS_P2;PMS_P1;PMS_P2;Temp;Humidity;BMP_temperature;BMP_pressure;BME280_temperature;BME280_humidity;BME280_pressure;Samples;Min_cycle;Max_cycle;Signal;HPM_P1;HPM_P2
2022/03/05 00:00:52;;;;;;;0.20;0.20;;;;;;;;;;4998133;28;20241;-66
2022/03/05 00:03:18;;;;;;;0.20;0.20;;;;;;;;;;5012346;28;20434;-67
2022/03/05 00:05:46;;;;;;;0.20;0.20;;;;;;;;;;4998625;28;20272;-67
2022/03/05 00:08:12;;;;;;;0.20;0.20;;;;;;;;;;5016275;28;20249;-67
2022/03/05 00:10:40;;;;;;;0.20;0.20;;;;;;;;;;5000501;28;20241;-67
2022/03/05 00:13:06;;;;;;;0.20;0.20;;;;;;;;;;5017032;28;20198;-67
2022/03/05 00:15:33;;;;;;;0.20;0.20;;;;;;;;;;4999456;28;20249;-67
2022/03/05 00:17:59;;;;;;;0.20;0.20;;;;;;;;;;5017569;28;20194;-67
2022/03/05 00:20:25;;;;;;;0.20;0.20;;;;;;;;;;4998806;28;20352;-67
2022/03/05 00:22:52;;;;;;;0.20;0.20;;;;;;;;;;5018463;28;20306;-68
2022/03/05 00:25:18;;;;;;;0.10;0.10;;;;;;;;;;4997480;28;20233;-66
2022/03/05 00:27:46;;;;;;;0.20;0.20;;;;;;;;;;5019345;28;20261;-67
2022/03/05 00:30:12;;;;;;;0.20;0.20;;;;;;;;;;4996944;28;20374;-66
2022/03/05 00:32:38;;;;;;;0.20;0.20;;;;;;;;;;5019899;28;20245;-66
2022/03/05 00:35:05;;;;;;;0.20;0.20;;;;;;;;;;5002084;28;20278;-67
2022/03/05 00:37:32;;;;;;;0.10;0.10;;;;;;;;;;5020426;28;20214;-67
2022/03/05 00:39:58;;;;;;;0.20;0.20;;;;;;;;;;5005519;28;20213;-67
2022/03/05 00:42:24;;;;;;;0.20;0.20;;;;;;;;;;5010551;28;20289;-68
2022/03/05 00:44:52;;;;;;;0.20;0.20;;;;;;;;;;5005246;28;20253;-66
2022/03/05 00:47:18;;;;;;;0.20;0.20;;;;;;;;;;5010588;28;20236;-66
2022/03/05 00:49:44;;;;;;;0.20;0.20;;;;;;;;;;5005197;28;20206;-66
2022/03/05 00:52:11;;;;;;;0.20;0.20;;;;;;;;;;5010423;28;20466;-68
2022/03/05 00:54:37;;;;;;;1.40;1.40;;;;;;;;;;5005349;28;20489;-66
2022/03/05 00:57:04;;;;;;;0.20;0.20;;;;;;;;;;5010373;28;20248;-66
2022/03/05 00:59:30;;;;;;;0.20;0.20;;;;;;;;;;5005519;28;20215;-67
2022/03/05 01:01:58;;;;;;;0.33;0.33;;;;;;;;;;5008985;28;20245;-67
2022/03/05 01:04:24;;;;;;;0.20;0.20;;;;;;;;;;5006063;28;20238;-66
2022/03/05 01:06:50;;;;;;;0.20;0.20;;;;;;;;;;5008013;28;20241;-66
2022/03/05 01:09:16;;;;;;;0.20;0.20;;;;;;;;;;5007019;28;20276;-67
2022/03/05 01:11:42;;;;;;;0.20;0.20;;;;;;;;;;5007124;28;20675;-67
2022/03/05 01:14:09;;;;;;;0.20;0.20;;;;;;;;;;5007854;28;20201;-66
2022/03/05 01:16:35;;;;;;;0.20;0.20;;;;;;;;;;5005844;28;20241;-66
2022/03/05 01:19:03;;;;;;;0.20;0.20;;;;;;;;;;5008166;28;20210;-67
2022/03/05 01:21:29;;;;;;;0.20;0.20;;;;;;;;;;5005479;28;20237;-66
2022/03/05 01:23:55;;;;;;;0.20;0.20;;;;;;;;;;5008836;28;20211;-66
2022/03/05 01:26:22;;;;;;;0.20;0.20;;;;;;;;;;5004105;28;20251;-66
2022/03/05 01:28:48;;;;;;;0.20;0.20;;;;;;;;;;5010334;28;20306;-67
2022/03/05 01:31:14;;;;;;;0.20;0.20;;;;;;;;;;5003199;28;20279;-66
2022/03/05 01:33:41;;;;;;;0.20;0.20;;;;;;;;;;5010558;28;20234;-68
2022/03/05 01:36:08;;;;;;;0.20;0.20;;;;;;;;;;5002365;28;20523;-66
2022/03/05 01:38:34;;;;;;;0.20;0.20;;;;;;;;;;5011704;28;20268;-66
2022/03/05 01:41:01;;;;;;;0.20;0.20;;;;;;;;;;5001477;28;20260;-66
2022/03/05 01:43:27;;;;;;;0.20;0.20;;;;;;;;;;5012376;28;20210;-66
2022/03/05 01:45:53;;;;;;;0.20;0.20;;;;;;;;;;5000294;28;20249;-67
2022/03/05 01:48:19;;;;;;;0.20;0.20;;;;;;;;;;5013287;28;20389;-66
2022/03/05 01:50:47;;;;;;;0.30;0.30;;;;;;;;;;4999360;28;20493;-66
2022/03/05 01:53:14;;;;;;;0.20;0.20;;;;;;;;;;5013934;28;20205;-66
2022/03/05 01:55:41;;;;;;;0.20;0.20;;;;;;;;;;4998832;28;20233;-67
2022/03/05 01:58:08;;;;;;;0.20;0.20;;;;;;;;;;5014556;28;20506;-66
2022/03/05 02:00:34;;;;;;;0.20;0.20;;;;;;;;;;4997670;28;20240;-68
2022/03/05 02:03:00;;;;;;;0.40;0.40;;;;;;;;;;5015372;28;20221;-67
2022/03/05 02:05:27;;;;;;;0.20;0.20;;;;;;;;;;4996723;28;20249;-66
2022/03/05 02:07:54;;;;;;;0.20;0.20;;;;;;;;;;5015864;28;20202;-66
2022/03/05 02:10:21;;;;;;;0.30;0.30;;;;;;;;;;4995808;28;20206;-66
2022/03/05 02:12:47;;;;;;;0.20;0.20;;;;;;;;;;5016979;28;20545;-67
2022/03/05 02:15:14;;;;;;;0.20;0.20;;;;;;;;;;4994811;28;20202;-67
2022/03/05 02:17:40;;;;;;;0.20;0.20;;;;;;;;;;5017854;28;20485;-67
2022/03/05 02:20:07;;;;;;;0.20;0.20;;;;;;;;;;4998446;28;20260;-68
2022/03/05 02:22:35;;;;;;;0.20;0.20;;;;;;;;;;5018585;28;20230;-67
2022/03/05 02:25:03;;;;;;;0.20;0.20;;;;;;;;;;5003612;28;20241;-66
2022/03/05 02:27:29;;;;;;;0.20;0.20;;;;;;;;;;5008728;28;20355;-66
2022/03/05 02:29:58;;;;;;;0.20;0.20;;;;;;;;;;5003469;28;20252;-66
2022/03/05 02:32:25;;;;;;;0.20;0.20;;;;;;;;;;5008269;28;20257;-66
2022/03/05 02:34:51;;;;;;;0.20;0.20;;;;;;;;;;5003302;28;20214;-66
2022/03/05 02:37:18;;;;;;;0.20;0.20;;;;;;;;;;5008303;28;20462;-66
2022/03/05 02:39:46;;;;;;;0.20;0.20;;;;;;;;;;5003465;28;20206;-67
2022/03/05 02:42:14;;;;;;;0.20;0.20;;;;;;;;;;5008301;28;20291;-67
2022/03/05 02:44:40;;;;;;;0.60;0.60;;;;;;;;;;5003256;28;20234;-67
2022/03/05 02:47:06;;;;;;;0.20;0.20;;;;;;;;;;5008177;28;20463;-67
2022/03/05 02:49:33;;;;;;;0.20;0.20;;;;;;;;;;5003392;28;20206;-67
2022/03/05 02:51:59;;;;;;;0.20;0.20;;;;;;;;;;5007520;28;20241;-66
2022/03/05 02:54:25;;;;;;;2.20;2.10;;;;;;;;;;5004008;28;20213;-66
2022/03/05 02:56:53;;;;;;;0.30;0.30;;;;;;;;;;5006550;28;20241;-67
2022/03/05 02:59:20;;;;;;;0.20;0.20;;;;;;;;;;5004267;28;20274;-67
2022/03/05 03:01:46;;;;;;;0.30;0.30;;;;;;;;;;5005542;28;20240;-67
2022/03/05 03:04:12;;;;;;;0.20;0.20;;;;;;;;;;5005597;28;20283;-67
2022/03/05 03:06:38;;;;;;;0.20;0.20;;;;;;;;;;5004553;28;20240;-67
2022/03/05 03:09:05;;;;;;;0.20;0.20;;;;;;;;;;5006406;28;20206;-67
2022/03/05 03:11:31;;;;;;;0.20;0.20;;;;;;;;;;5003633;28;20645;-66
2022/03/05 03:13:58;;;;;;;0.30;0.30;;;;;;;;;;5007230;28;20268;-67
2022/03/05 03:16:25;;;;;;;0.20;0.20;;;;;;;;;;5002701;28;20244;-66
2022/03/05 03:18:51;;;;;;;0.20;0.20;;;;;;;;;;5008226;28;20457;-66
2022/03/05 03:21:17;;;;;;;0.20;0.20;;;;;;;;;;5001867;28;20478;-67
2022/03/05 03:23:43;;;;;;;0.20;0.20;;;;;;;;;;5008922;28;20407;-67
2022/03/05 03:26:10;;;;;;;0.20;0.20;;;;;;;;;;5000903;28;20249;-67
2022/03/05 03:28:36;;;;;;;0.20;0.20;;;;;;;;;;5009899;28;20205;-66
2022/03/05 03:31:03;;;;;;;0.20;0.20;;;;;;;;;;4999860;28;20292;-67
2022/03/05 03:33:30;;;;;;;0.20;0.20;;;;;;;;;;5010552;28;20245;-66
2022/03/05 03:35:56;;;;;;;0.20;0.20;;;;;;;;;;4999134;28;20306;-66
2022/03/05 03:38:22;;;;;;;0.30;0.30;;;;;;;;;;5011374;28;20213;-67
2022/03/05 03:40:48;;;;;;;0.20;0.20;;;;;;;;;;4999719;28;20410;-66
2022/03/05 03:43:14;;;;;;;0.20;0.20;;;;;;;;;;5016200;28;20205;-66
2022/03/05 03:45:41;;;;;;;0.30;0.30;;;;;;;;;;5001138;28;20631;-66
2022/03/05 03:48:08;;;;;;;0.20;0.20;;;;;;;;;;5017062;28;20417;-67
2022/03/05 03:50:35;;;;;;;0.20;0.20;;;;;;;;;;5000425;28;20241;-67
2022/03/05 03:53:01;;;;;;;0.20;0.20;;;;;;;;;;5017756;28;20265;-66
2022/03/05 03:55:27;;;;;;;0.20;0.20;;;;;;;;;;4999329;28;20433;-67
2022/03/05 03:57:53;;;;;;;0.30;0.30;;;;;;;;;;5018466;28;20261;-66
2022/03/05 04:00:22;;;;;;;0.20;0.20;;;;;;;;;;4997890;28;20571;-67
2022/03/05 04:02:48;;;;;;;0.20;0.20;;;;;;;;;;5019062;28;20249;-67
2022/03/05 04:05:16;;;;;;;0.30;0.30;;;;;;;;;;4997478;28;20288;-67
2022/03/05 04:10:26;;;;;;;0.20;0.20;;;;;;;;;;4998952;28;20255;-67
2022/03/05 04:12:52;;;;;;;0.23;0.23;;;;;;;;;;5018526;28;20194;-66
2022/03/05 04:15:19;;;;;;;0.30;0.30;;;;;;;;;;4997786;28;20202;-67
2022/03/05 04:17:45;;;;;;;0.20;0.20;;;;;;;;;;5019018;28;20194;-67
2022/03/05 04:20:12;;;;;;;0.20;0.20;;;;;;;;;;4996787;28;20533;-68
2022/03/05 04:22:39;;;;;;;0.20;0.20;;;;;;;;;;5020177;28;20194;-67
2022/03/05 04:25:06;;;;;;;0.30;0.30;;;;;;;;;;4997590;28;20524;-68
2022/03/05 04:27:33;;;;;;;0.20;0.20;;;;;;;;;;5020176;28;20398;-66
2022/03/05 04:29:59;;;;;;;0.20;0.20;;;;;;;;;;5005801;28;20206;-66
2022/03/05 04:32:25;;;;;;;0.20;0.20;;;;;;;;;;5010549;28;20440;-66
2022/03/05 04:34:51;;;;;;;0.20;0.20;;;;;;;;;;5005901;28;20206;-67
2022/03/05 04:37:18;;;;;;;0.20;0.20;;;;;;;;;;5010440;28;20245;-67
2022/03/05 04:39:45;;;;;;;0.27;0.27;;;;;;;;;;5005449;28;20221;-67
2022/03/05 04:42:11;;;;;;;0.30;0.30;;;;;;;;;;5010275;28;20288;-67
2022/03/05 04:44:38;;;;;;;0.27;0.27;;;;;;;;;;5005573;28;20210;-67
2022/03/05 04:47:04;;;;;;;0.23;0.23;;;;;;;;;;5010102;28;20272;-67
2022/03/05 04:49:32;;;;;;;0.30;0.30;;;;;;;;;;5005060;28;20248;-66
2022/03/05 04:51:58;;;;;;;0.30;0.30;;;;;;;;;;5008203;28;20241;-67
2022/03/05 04:54:29;;;;;;;0.20;0.20;;;;;;;;;;5006152;28;20451;-67
2022/03/05 04:56:57;;;;;;;0.30;0.30;;;;;;;;;;5009074;28;20241;-66
2022/03/05 04:59:23;;;;;;;0.23;0.23;;;;;;;;;;5006188;28;20400;-66
2022/03/05 05:01:50;;;;;;;0.23;0.23;;;;;;;;;;5008099;28;20240;-66
2022/03/05 05:04:16;;;;;;;0.30;0.30;;;;;;;;;;5006585;28;20253;-66
2022/03/05 05:06:42;;;;;;;0.30;0.30;;;;;;;;;;5005651;28;20495;-66
2022/03/05 05:09:08;;;;;;;0.30;0.30;;;;;;;;;;5009260;28;20210;-66
2022/03/05 05:11:34;;;;;;;0.23;0.23;;;;;;;;;;5006157;28;20240;-66
2022/03/05 05:14:02;;;;;;;0.20;0.20;;;;;;;;;;5008655;28;20264;-67
2022/03/05 05:16:28;;;;;;;0.30;0.30;;;;;;;;;;5005377;28;20408;-66
2022/03/05 05:21:42;;;;;;;0.30;0.30;;;;;;;;;;5006493;28;20283;-66
2022/03/05 05:24:08;;;;;;;0.27;0.27;;;;;;;;;;5007828;28;20274;-66
2022/03/05 05:26:34;;;;;;;0.27;0.27;;;;;;;;;;5005779;28;20628;-67
2022/03/05 05:29:00;;;;;;;0.30;0.30;;;;;;;;;;5008143;28;20258;-65
2022/03/05 05:31:28;;;;;;;0.30;0.30;;;;;;;;;;5004849;28;20241;-67
2022/03/05 05:33:54;;;;;;;0.30;0.30;;;;;;;;;;5008987;28;20250;-66
2022/03/05 05:36:20;;;;;;;0.30;0.30;;;;;;;;;;5003958;28;20240;-66
2022/03/05 05:38:47;;;;;;;0.27;0.27;;;;;;;;;;5009793;28;20210;-66
2022/03/05 05:41:14;;;;;;;0.30;0.30;;;;;;;;;;5002985;28;20240;-66
2022/03/05 05:43:40;;;;;;;0.20;0.20;;;;;;;;;;5010269;28;20201;-68
2022/03/05 05:46:07;;;;;;;0.30;0.30;;;;;;;;;;5002116;28;20241;-65
2022/03/05 05:48:34;;;;;;;0.23;0.23;;;;;;;;;;5011413;28;20432;-67
2022/03/05 05:51:00;;;;;;;0.30;0.30;;;;;;;;;;5001389;28;20240;-66
2022/03/05 05:53:27;;;;;;;0.30;0.30;;;;;;;;;;5012268;28;20206;-66
2022/03/05 05:55:54;;;;;;;0.30;0.30;;;;;;;;;;5000247;28;20572;-66
2022/03/05 05:58:20;;;;;;;0.20;0.20;;;;;;;;;;5013272;28;20359;-66
2022/03/05 06:00:46;;;;;;;0.30;0.30;;;;;;;;;;4999047;28;20241;-67
2022/03/05 06:03:12;;;;;;;0.20;0.20;;;;;;;;;;5014023;28;20225;-66
2022/03/05 06:05:40;;;;;;;0.30;0.30;;;;;;;;;;4997919;28;20324;-67
2022/03/05 06:08:06;;;;;;;0.30;0.30;;;;;;;;;;5014793;28;20201;-67
2022/03/05 06:10:32;;;;;;;0.30;0.30;;;;;;;;;;4997349;28;20271;-67
2022/03/05 06:12:58;;;;;;;0.20;0.20;;;;;;;;;;5015777;28;20266;-66
2022/03/05 06:15:25;;;;;;;0.30;0.30;;;;;;;;;;4996621;28;20242;-67
2022/03/05 06:17:54;;;;;;;0.30;0.30;;;;;;;;;;5016529;28;20265;-66
2022/03/05 06:20:20;;;;;;;0.30;0.30;;;;;;;;;;4995798;28;20385;-66
2022/03/05 06:22:48;;;;;;;0.30;0.30;;;;;;;;;;5016943;28;20232;-66
2022/03/05 06:25:14;;;;;;;0.20;0.20;;;;;;;;;;4994938;28;20254;-67
2022/03/05 06:27:41;;;;;;;0.30;0.30;;;;;;;;;;5017513;28;20499;-68
2022/03/05 06:30:07;;;;;;;0.20;0.20;;;;;;;;;;4993683;28;20206;-68
2022/03/05 06:32:34;;;;;;;0.20;0.20;;;;;;;;;;5018310;28;20568;-67
2022/03/05 06:35:00;;;;;;;0.20;0.20;;;;;;;;;;5003701;28;20256;-66
2022/03/05 06:37:26;;;;;;;0.30;0.30;;;;;;;;;;5008493;28;20244;-67
2022/03/05 06:39:53;;;;;;;0.30;0.30;;;;;;;;;;5003722;28;20253;-67
2022/03/05 06:42:20;;;;;;;0.20;0.20;;;;;;;;;;5008652;28;20268;-66
2022/03/05 06:44:46;;;;;;;0.20;0.20;;;;;;;;;;5003561;28;20217;-67
2022/03/05 06:47:12;;;;;;;0.20;0.20;;;;;;;;;;5008472;28;20291;-66
2022/03/05 06:49:38;;;;;;;0.20;0.20;;;;;;;;;;5003327;28;20248;-67
2022/03/05 06:52:05;;;;;;;0.20;0.20;;;;;;;;;;5008158;28;20588;-67
2022/03/05 06:54:31;;;;;;;0.20;0.20;;;;;;;;;;5003043;28;20205;-67
2022/03/05 06:56:59;;;;;;;0.20;0.20;;;;;;;;;;5006964;28;20264;-66
2022/03/05 06:59:25;;;;;;;0.20;0.20;;;;;;;;;;5004336;28;20209;-67
2022/03/05 07:01:51;;;;;;;0.20;0.20;;;;;;;;;;5006335;28;20651;-67
2022/03/05 07:04:17;;;;;;;0.20;0.20;;;;;;;;;;5005176;28;20489;-67
2022/03/05 07:06:43;;;;;;;0.30;0.30;;;;;;;;;;5005390;28;20285;-67
2022/03/05 07:09:10;;;;;;;0.30;0.30;;;;;;;;;;5005816;28;20206;-66
2022/03/05 07:11:36;;;;;;;0.30;0.30;;;;;;;;;;5004419;28;20249;-66
2022/03/05 07:14:03;;;;;;;0.30;0.30;;;;;;;;;;5006805;28;20229;-66
2022/03/05 07:16:30;;;;;;;0.20;0.20;;;;;;;;;;5006277;28;20237;-66
2022/03/05 07:18:56;;;;;;;0.20;0.20;;;;;;;;;;5011662;28;20432;-67
2022/03/05 07:21:22;;;;;;;0.30;0.30;;;;;;;;;;5006854;28;20303;-66
2022/03/05 07:23:49;;;;;;;0.20;0.20;;;;;;;;;;5012423;28;20416;-65
2022/03/05 07:26:16;;;;;;;0.23;0.23;;;;;;;;;;5005696;28;20240;-66
2022/03/05 07:28:42;;;;;;;0.30;0.30;;;;;;;;;;5012981;28;20244;-66
2022/03/05 07:31:10;;;;;;;0.27;0.27;;;;;;;;;;5004847;28;20290;-66
2022/03/05 07:33:36;;;;;;;0.20;0.20;;;;;;;;;;5014020;28;20241;-67
2022/03/05 07:36:04;;;;;;;0.20;0.20;;;;;;;;;;5004036;28;20238;-67
2022/03/05 07:38:30;;;;;;;0.83;0.83;;;;;;;;;;5014406;28;20216;-67
2022/03/05 07:40:56;;;;;;;0.20;0.20;;;;;;;;;;5003322;28;20240;-67
2022/03/05 07:43:23;;;;;;;0.20;0.20;;;;;;;;;;5015333;28;20206;-66
2022/03/05 07:45:49;;;;;;;0.20;0.20;;;;;;;;;;5002301;28;20310;-68
2022/03/05 07:48:19;;;;;;;0.20;0.20;;;;;;;;;;5016291;28;20226;-67
2022/03/05 07:50:46;;;;;;;0.20;0.20;;;;;;;;;;5001597;28;20360;-67
2022/03/05 07:53:12;;;;;;;0.20;0.20;;;;;;;;;;5016794;28;20420;-67
2022/03/05 07:55:38;;;;;;;0.10;0.10;;;;;;;;;;5000182;28;20290;-67
2022/03/05 07:58:05;;;;;;;0.10;0.10;;;;;;;;;;5016967;28;20297;-66
2022/03/05 08:00:31;;;;;;;0.10;0.10;;;;;;;;;;4999611;28;20245;-67
2022/03/05 08:02:57;;;;;;;0.10;0.10;;;;;;;;;;5017882;28;20237;-67
2022/03/05 08:05:25;;;;;;;0.10;0.10;;;;;;;;;;4998499;28;20249;-67
2022/03/05 08:07:53;;;;;;;0.10;0.10;;;;;;;;;;5018891;28;20385;-67
2022/03/05 08:10:19;;;;;;;0.10;0.10;;;;;;;;;;4997832;28;20202;-67
2022/03/05 08:12:45;;;;;;;0.10;0.10;;;;;;;;;;5019693;28;20414;-68
2022/03/05 08:15:12;;;;;;;0.10;0.10;;;;;;;;;;4996869;28;20559;-67
2022/03/05 08:17:48;;;;;;;0.17;0.17;;;;;;;;;;5020347;28;20223;-67
2022/03/05 08:20:14;;;;;;;0.10;0.10;;;;;;;;;;4997152;28;20209;-66
2022/03/05 08:22:41;;;;;;;0.10;0.10;;;;;;;;;;5019860;28;20392;-67
2022/03/05 08:25:08;;;;;;;0.10;0.10;;;;;;;;;;4996476;28;20214;-68
2022/03/05 08:27:34;;;;;;;0.10;0.10;;;;;;;;;;5020207;28;20220;-67
2022/03/05 08:30:00;;;;;;;0.10;0.10;;;;;;;;;;5006167;28;20206;-67
2022/03/05 08:32:27;;;;;;;0.10;0.10;;;;;;;;;;5010555;28;20245;-67
2022/03/05 08:34:53;;;;;;;0.10;0.10;;;;;;;;;;5005618;28;20209;-67
2022/03/05 08:37:19;;;;;;;0.10;0.10;;;;;;;;;;5010683;28;20239;-68
2022/03/05 08:39:47;;;;;;;0.10;0.10;;;;;;;;;;5006079;28;20206;-67
2022/03/05 08:42:13;;;;;;;0.10;0.10;;;;;;;;;;5010653;28;20332;-67
2022/03/05 08:44:39;;;;;;;0.10;0.10;;;;;;;;;;5005942;28;20207;-68
2022/03/05 08:47:06;;;;;;;0.00;0.00;;;;;;;;;;5010681;28;20239;-67
2022/03/05 08:49:32;;;;;;;0.10;0.10;;;;;;;;;;5005701;28;20242;-67
2022/03/05 08:51:58;;;;;;;0.10;0.10;;;;;;;;;;5009835;28;20645;-68
2022/03/05 08:54:25;;;;;;;0.00;0.00;;;;;;;;;;5006435;28;20219;-67
2022/03/05 08:56:53;;;;;;;0.00;0.00;;;;;;;;;;5008862;28;20633;-67
2022/03/05 08:59:19;;;;;;;0.10;0.10;;;;;;;;;;5007103;28;20392;-68
2022/03/05 09:01:45;;;;;;;0.10;0.10;;;;;;;;;;5007981;28;20594;-68
2022/03/05 09:04:12;;;;;;;0.10;0.10;;;;;;;;;;5007775;28;20402;-68
2022/03/05 09:06:38;;;;;;;0.00;0.00;;;;;;;;;;5007025;28;20437;-68
2022/03/05 09:09:05;;;;;;;0.00;0.00;;;;;;;;;;5008712;28;20213;-68
2022/03/05 09:11:31;;;;;;;0.00;0.00;;;;;;;;;;5005792;28;20299;-68
2022/03/05 09:13:59;;;;;;;0.00;0.00;;;;;;;;;;5009503;28;20209;-68
2022/03/05 09:16:25;;;;;;;0.00;0.00;;;;;;;;;;5005270;28;20287;-68
2022/03/05 09:18:51;;;;;;;0.10;0.10;;;;;;;;;;5010073;28;20214;-68
2022/03/05 09:21:17;;;;;;;0.00;0.00;;;;;;;;;;5004140;28;20317;-67
2022/03/05 09:23:44;;;;;;;0.00;0.00;;;;;;;;;;5011024;28;20506;-68
2022/03/05 09:26:10;;;;;;;0.00;0.00;;;;;;;;;;5003163;28;20561;-67
2022/03/05 09:28:37;;;;;;;0.00;0.00;;;;;;;;;;5011507;28;20237;-64
2022/03/05 09:31:04;;;;;;;0.00;0.00;;;;;;;;;;5001604;28;20260;-64
2022/03/05 09:33:31;;;;;;;0.10;0.10;;;;;;;;;;5012336;28;20242;-65
2022/03/05 09:35:57;;;;;;;0.00;0.00;;;;;;;;;;5000995;28;20480;-65
2022/03/05 09:38:23;;;;;;;0.00;0.00;;;;;;;;;;5012839;28;20252;-66
2022/03/05 09:40:49;;;;;;;0.08;0.08;;;;;;;;;;4999913;28;20449;-64
2022/03/05 09:43:17;;;;;;;0.00;0.00;;;;;;;;;;5014055;28;20206;-65
2022/03/05 09:45:44;;;;;;;0.00;0.00;;;;;;;;;;4999445;28;20563;-64
2022/03/05 09:48:12;;;;;;;0.10;0.10;;;;;;;;;;5014228;28;20225;-64
2022/03/05 09:50:39;;;;;;;0.30;0.30;;;;;;;;;;4998345;28;20245;-65
2022/03/05 09:53:05;;;;;;;0.10;0.10;;;;;;;;;;5015137;28;20205;-66
2022/03/05 09:55:31;;;;;;;0.00;0.00;;;;;;;;;;4997797;28;20241;-64
2022/03/05 09:57:58;;;;;;;0.10;0.10;;;;;;;;;;5015928;28;20191;-65
2022/03/05 10:00:24;;;;;;;0.00;0.00;;;;;;;;;;4996759;28;20276;-65
2022/03/05 10:02:50;;;;;;;0.00;0.00;;;;;;;;;;5016844;28;20194;-64
2022/03/05 10:05:19;;;;;;;0.00;0.00;;;;;;;;;;4995641;28;20210;-63
2022/03/05 10:08:07;;;;;;;0.00;0.00;;;;;;;;;;5017232;28;20248;-64
2022/03/05 10:10:39;;;;;;;0.00;0.00;;;;;;;;;;4997401;28;20245;-65
2022/03/05 10:13:15;;;;;;;0.00;0.00;;;;;;;;;;5014711;28;20253;-63
2022/03/05 10:15:41;;;;;;;12.10;9.95;;;;;;;;;;4998482;28;20244;-65
2022/03/05 10:18:07;;;;;;;0.00;0.00;;;;;;;;;;5014648;28;20197;-64
2022/03/05 10:20:42;;;;;;;0.00;0.00;;;;;;;;;;4997368;28;20292;-64
2022/03/05 10:23:10;;;;;;;0.00;0.00;;;;;;;;;;5014402;28;20206;-64
2022/03/05 10:25:37;;;;;;;0.00;0.00;;;;;;;;;;4997562;28;20242;-65
2022/03/05 10:28:08;;;;;;;0.00;0.00;;;;;;;;;;5014502;28;20403;-66
2022/03/05 10:30:35;;;;;;;0.10;0.10;;;;;;;;;;4997374;28;20563;-65
2022/03/05 10:33:01;;;;;;;0.10;0.10;;;;;;;;;;5014546;28;20242;-64
2022/03/05 10:35:28;;;;;;;0.10;0.10;;;;;;;;;;4996417;28;20240;-64
2022/03/05 10:37:55;;;;;;;0.10;0.10;;;;;;;;;;5015482;28;20231;-64
2022/03/05 10:40:26;;;;;;;0.10;0.10;;;;;;;;;;4995550;28;20211;-64
2022/03/05 10:42:52;;;;;;;0.10;0.10;;;;;;;;;;5016211;28;20335;-65
2022/03/05 10:45:22;;;;;;;0.10;0.10;;;;;;;;;;4994972;28;20261;-64
2022/03/05 10:47:50;;;;;;;0.10;0.10;;;;;;;;;;5016627;28;20228;-64
2022/03/05 10:50:23;;;;;;;0.10;0.10;;;;;;;;;;4994709;28;20281;-64
2022/03/05 10:52:50;;;;;;;0.10;0.10;;;;;;;;;;5016096;28;20197;-64
2022/03/05 10:55:18;;;;;;;0.10;0.10;;;;;;;;;;4995049;28;20212;-65
2022/03/05 10:57:58;;;;;;;0.10;0.10;;;;;;;;;;5017039;28;20193;-64
2022/03/05 11:00:25;;;;;;;0.10;0.10;;;;;;;;;;4995452;28;20228;-65
2022/03/05 11:02:51;;;;;;;0.10;0.10;;;;;;;;;;5016210;28;20379;-64
2022/03/05 11:05:17;;;;;;;0.10;0.10;;;;;;;;;;4994873;28;20266;-63
2022/03/05 11:07:44;;;;;;;0.10;0.10;;;;;;;;;;5016817;28;20557;-63
2022/03/05 11:10:11;;;;;;;0.10;0.10;;;;;;;;;;4993618;28;20208;-64
2022/03/05 11:12:40;;;;;;;0.05;0.05;;;;;;;;;;5017860;28;20265;-64
2022/03/05 11:15:07;;;;;;;0.00;0.00;;;;;;;;;;4993193;28;20457;-65
2022/03/05 11:17:34;;;;;;;0.10;0.10;;;;;;;;;;5001208;28;20257;-64
2022/03/05 11:20:00;;;;;;;0.10;0.10;;;;;;;;;;5002837;28;20269;-63
2022/03/05 11:22:27;;;;;;;0.00;0.00;;;;;;;;;;5008052;28;20276;-64
2022/03/05 11:24:54;;;;;;;0.10;0.10;;;;;;;;;;5003210;28;20208;-64
2022/03/05 11:27:20;;;;;;;0.00;0.00;;;;;;;;;;5008160;28;20309;-64
2022/03/05 11:29:55;;;;;;;0.10;0.10;;;;;;;;;;5003168;28;20206;-63
2022/03/05 11:32:22;;;;;;;0.03;0.03;;;;;;;;;;5007914;28;20241;-63
2022/03/05 11:34:48;;;;;;;0.10;0.10;;;;;;;;;;5003223;28;20272;-64
2022/03/05 11:37:15;;;;;;;0.47;0.47;;;;;;;;;;5008227;28;20244;-64
2022/03/05 11:39:42;;;;;;;0.10;0.10;;;;;;;;;;5002999;28;20235;-65
2022/03/05 11:42:09;;;;;;;0.10;0.10;;;;;;;;;;5008155;28;20286;-64
2022/03/05 11:44:39;;;;;;;0.10;0.10;;;;;;;;;;5003143;28;20316;-64
2022/03/05 11:47:24;;;;;;;0.10;0.10;;;;;;;;;;5007887;28;20304;-65
2022/03/05 11:50:09;;;;;;;0.10;0.10;;;;;;;;;;5002840;28;20212;-63
2022/03/05 11:52:54;;;;;;;0.10;0.10;;;;;;;;;;4975607;28;20274;-64
2022/03/05 11:55:21;;;;;;;0.10;0.10;;;;;;;;;;4994942;28;20230;-64
2022/03/05 11:58:04;;;;;;;0.00;0.00;;;;;;;;;;5016116;28;20493;-64
2022/03/05 12:00:32;;;;;;;0.00;0.00;;;;;;;;;;4995708;28;20244;-63
2022/03/05 12:03:00;;;;;;;0.00;0.00;;;;;;;;;;5018374;28;20433;-64
2022/03/05 12:05:46;;;;;;;0.00;0.00;;;;;;;;;;4999285;28;20255;-64
2022/03/05 12:08:13;;;;;;;0.00;0.00;;;;;;;;;;5016052;28;20229;-63
2022/03/05 12:10:40;;;;;;;0.00;0.00;;;;;;;;;;5000598;28;20273;-64
2022/03/05 12:13:09;;;;;;;0.00;0.00;;;;;;;;;;5017308;28;20215;-64
2022/03/05 12:15:35;;;;;;;0.00;0.00;;;;;;;;;;4999937;28;20382;-65
2022/03/05 12:18:04;;;;;;;0.00;0.00;;;;;;;;;;5017455;28;20196;-64
2022/03/05 12:20:33;;;;;;;0.10;0.10;;;;;;;;;;4999505;28;20312;-64
2022/03/05 12:23:01;;;;;;;0.07;0.07;;;;;;;;;;5017441;28;20222;-63
2022/03/05 12:25:28;;;;;;;0.10;0.10;;;;;;;;;;4998371;28;20254;-64
2022/03/05 12:27:55;;;;;;;0.10;0.10;;;;;;;;;;5017957;28;20221;-63
2022/03/05 12:30:23;;;;;;;0.10;0.10;;;;;;;;;;4997670;28;20209;-63
2022/03/05 12:32:51;;;;;;;0.10;0.10;;;;;;;;;;5018294;28;20237;-63
2022/03/05 12:35:21;;;;;;;0.10;0.10;;;;;;;;;;4997165;28;20381;-63
2022/03/05 12:37:47;;;;;;;0.40;0.40;;;;;;;;;;5018888;28;20203;-63
2022/03/05 12:40:14;;;;;;;0.23;0.23;;;;;;;;;;4996505;28;20430;-63
2022/03/05 12:42:42;;;;;;;0.10;0.10;;;;;;;;;;5019863;28;20257;-63
2022/03/05 12:45:13;;;;;;;0.20;0.20;;;;;;;;;;4996028;28;20443;-63
2022/03/05 12:47:39;;;;;;;0.10;0.10;;;;;;;;;;5019804;28;20265;-64
2022/03/05 12:50:19;;;;;;;0.10;0.10;;;;;;;;;;5004757;28;20208;-65
2022/03/05 12:52:53;;;;;;;0.10;0.10;;;;;;;;;;5005403;28;20201;-63
2022/03/05 12:55:20;;;;;;;0.10;0.10;;;;;;;;;;4997345;28;20260;-62
2022/03/05 12:57:46;;;;;;;0.10;0.10;;;;;;;;;;5018534;28;20254;-64
2022/03/05 13:00:13;;;;;;;0.10;0.10;;;;;;;;;;4996223;28;20413;-64
2022/03/05 13:02:39;;;;;;;0.10;0.10;;;;;;;;;;5019752;28;20333;-64
2022/03/05 13:05:11;;;;;;;0.10;0.10;;;;;;;;;;5005203;28;20259;-66
2022/03/05 13:07:39;;;;;;;5.87;5.43;;;;;;;;;;5019633;28;20352;-64
2022/03/05 13:10:08;;;;;;;0.10;0.10;;;;;;;;;;5005405;28;20219;-64
2022/03/05 13:12:35;;;;;;;0.10;0.10;;;;;;;;;;4977019;28;20219;-63
2022/03/05 13:15:01;;;;;;;0.10;0.10;;;;;;;;;;5004612;28;20216;-62
2022/03/05 13:17:27;;;;;;;0.10;0.10;;;;;;;;;;5010128;28;20514;-63
2022/03/05 13:19:57;;;;;;;0.10;0.10;;;;;;;;;;5004675;28;20211;-65
2022/03/05 13:22:27;;;;;;;0.10;0.10;;;;;;;;;;5009855;28;20246;-69
2022/03/05 13:24:55;;;;;;;0.10;0.10;;;;;;;;;;5004691;28;20206;-68
2022/03/05 13:27:24;;;;;;;0.10;0.10;;;;;;;;;;5009917;28;20455;-69
2022/03/05 13:29:51;;;;;;;0.10;0.10;;;;;;;;;;5004566;28;20227;-69
2022/03/05 13:32:17;;;;;;;0.10;0.10;;;;;;;;;;5009519;28;20270;-67
2022/03/05 13:34:44;;;;;;;0.10;0.10;;;;;;;;;;5004927;28;20229;-68
2022/03/05 13:37:10;;;;;;;0.10;0.10;;;;;;;;;;5009448;28;20281;-68
2022/03/05 13:39:38;;;;;;;0.10;0.10;;;;;;;;;;5004438;28;20528;-69
2022/03/05 13:42:12;;;;;;;0.10;0.10;;;;;;;;;;5009473;28;20247;-68
2022/03/05 13:44:39;;;;;;;0.10;0.10;;;;;;;;;;5004571;28;20252;-68
2022/03/05 13:47:08;;;;;;;0.10;0.10;;;;;;;;;;5009441;28;20247;-70
2022/03/05 13:49:34;;;;;;;0.10;0.10;;;;;;;;;;5004353;28;20543;-69
2022/03/05 13:52:01;;;;;;;0.10;0.10;;;;;;;;;;5008888;28;20244;-68
2022/03/05 13:54:32;;;;;;;0.10;0.10;;;;;;;;;;5004521;28;20212;-68
2022/03/05 13:56:58;;;;;;;0.10;0.10;;;;;;;;;;5008450;28;20258;-68
2022/03/05 13:59:37;;;;;;;0.10;0.10;;;;;;;;;;5005152;28;20203;-67
2022/03/05 14:02:03;;;;;;;0.10;0.10;;;;;;;;;;5009094;28;20242;-68
2022/03/05 14:04:30;;;;;;;0.10;0.10;;;;;;;;;;5004147;28;20208;-68
2022/03/05 14:06:57;;;;;;;0.10;0.10;;;;;;;;;;5008167;28;20248;-68
2022/03/05 14:09:27;;;;;;;0.10;0.10;;;;;;;;;;5004986;28;20235;-67
2022/03/05 14:12:06;;;;;;;0.10;0.10;;;;;;;;;;5007457;28;20268;-69
2022/03/05 14:14:38;;;;;;;0.10;0.10;;;;;;;;;;5003854;28;20209;-68
2022/03/05 14:17:04;;;;;;;0.10;0.10;;;;;;;;;;5008677;28;20443;-66
2022/03/05 14:19:32;;;;;;;0.13;0.13;;;;;;;;;;5003832;28;20203;-68
2022/03/05 14:22:06;;;;;;;0.10;0.10;;;;;;;;;;5007513;28;20265;-68
2022/03/05 14:24:32;;;;;;;0.10;0.10;;;;;;;;;;5003566;28;20210;-65
2022/03/05 14:26:58;;;;;;;0.13;0.13;;;;;;;;;;5007848;28;20575;-68
2022/03/05 14:29:24;;;;;;;0.20;0.20;;;;;;;;;;5004535;28;20271;-66
2022/03/05 14:31:52;;;;;;;0.10;0.10;;;;;;;;;;5006542;28;20246;-66
2022/03/05 14:34:19;;;;;;;0.10;0.10;;;;;;;;;;5005271;28;20230;-67
2022/03/05 14:36:45;;;;;;;0.10;0.10;;;;;;;;;;5005898;28;20243;-69
2022/03/05 14:39:13;;;;;;;0.10;0.10;;;;;;;;;;5005572;28;20236;-68
2022/03/05 14:41:39;;;;;;;0.10;0.10;;;;;;;;;;5005109;28;20507;-68
2022/03/05 14:44:05;;;;;;;0.10;0.10;;;;;;;;;;5006496;28;20269;-69
2022/03/05 14:46:32;;;;;;;0.10;0.10;;;;;;;;;;5003970;28;20245;-69
2022/03/05 14:48:59;;;;;;;0.10;0.10;;;;;;;;;;5007561;28;20243;-69